sensor_id;sensor_type;location;lat;lon;timestamp;temperature;humidity
7378;DHT22;3730;50.856;12.776;2022-07-29T05:28:04;20.20;1.00
7378;DHT22;3730;50.856;12.776;2022-07-29T05:30:29;19.80;5.10
7378;DHT22;3730;50.856;12.776;2022-07-29T05:32:55;19.90;5.30
7378;DHT22;3730;50.856;12.776;2022-07-29T05:35:21;19.90;5.80
7378;DHT22;3730;50.856;12.776;2022-07-29T05:37:46;19.90;6.20
7378;DHT22;3730;50.856;12.776;2022-07-29T05:40:12;20.00;6.80
7378;DHT22;3730;50.856;12.776;2022-07-29T05:42:38;20.00;7.00
7378;DHT22;3730;50.856;12.776;2022-07-29T05:45:04;20.10;7.20
7378;DHT22;3730;50.856;12.776;2022-07-29T05:47:30;20.10;7.20
7378;DHT22;3730;50.856;12.776;2022-07-29T06:33:52;20.10;7.30
7378;DHT22;3730;50.856;12.776;2022-07-29T06:36:18;21.00;8.10
7378;DHT22;3730;50.856;12.776;2022-07-29T06:38:44;21.00;7.50
7378;DHT22;3730;50.856;12.776;2022-07-29T06:41:09;21.00;7.30
7378;DHT22;3730;50.856;12.776;2022-07-29T06:43:42;21.10;7.10
7378;DHT22;3730;50.856;12.776;2022-07-29T06:46:10;21.10;7.20
7378;DHT22;3730;50.856;12.776;2022-07-29T06:48:36;21.10;7.20
7378;DHT22;3730;50.856;12.776;2022-07-29T06:51:03;21.10;7.30
7378;DHT22;3730;50.856;12.776;2022-07-29T06:53:30;21.20;7.50
7378;DHT22;3730;50.856;12.776;2022-07-29T06:55:57;21.20;7.30
7378;DHT22;3730;50.856;12.776;2022-07-29T06:58:27;21.20;7.40
7378;DHT22;3730;50.856;12.776;2022-07-29T07:00:53;21.30;7.00
7378;DHT22;3730;50.856;12.776;2022-07-29T07:03:19;21.30;6.70
7378;DHT22;3730;50.856;12.776;2022-07-29T07:05:45;21.40;6.70
7378;DHT22;3730;50.856;12.776;2022-07-29T07:08:12;21.40;6.40
7378;DHT22;3730;50.856;12.776;2022-07-29T07:10:38;21.40;6.20
7378;DHT22;3730;50.856;12.776;2022-07-29T07:13:04;21.50;5.80
7378;DHT22;3730;50.856;12.776;2022-07-29T08:41:01;21.50;5.70
7378;DHT22;3730;50.856;12.776;2022-07-29T08:43:29;22.20;7.40
7378;DHT22;3730;50.856;12.776;2022-07-29T08:45:55;22.30;7.20
7378;DHT22;3730;50.856;12.776;2022-07-29T09:05:31;22.30;6.70
7378;DHT22;3730;50.856;12.776;2022-07-29T09:10:24;23.00;6.80
7378;DHT22;3730;50.856;12.776;2022-07-29T10:43:22;23.20;6.00
7378;DHT22;3730;50.856;12.776;2022-07-29T10:45:55;26.30;1.00
7378;DHT22;3730;50.856;12.776;2022-07-29T10:50:56;26.40;1.00
7378;DHT22;3730;50.856;12.776;2022-07-29T11:03:44;26.60;1.00
7378;DHT22;3730;50.856;12.776;2022-07-29T11:06:11;27.00;1.00
7378;DHT22;3730;50.856;12.776;2022-07-29T11:08:36;27.00;1.00
7378;DHT22;3730;50.856;12.776;2022-07-29T11:29:16;27.20;1.00
7378;DHT22;3730;50.856;12.776;2022-07-29T11:31:46;28.00;1.00
7378;DHT22;3730;50.856;12.776;2022-07-29T11:34:32;28.00;1.00
7378;DHT22;3730;50.856;12.776;2022-07-29T11:40:24;27.90;1.00
7378;DHT22;3730;50.856;12.776;2022-07-29T11:47:37;28.00;1.00
7378;DHT22;3730;50.856;12.776;2022-07-29T11:50:05;28.00;1.00
7378;DHT22;3730;50.856;12.776;2022-07-29T11:52:39;28.10;1.00
7378;DHT22;3730;50.856;12.776;2022-07-29T11:55:15;28.10;1.00
7378;DHT22;3730;50.856;12.776;2022-07-29T11:57:55;28.20;1.00
7378;DHT22;3730;50.856;12.776;2022-07-29T12:00:27;28.30;1.00
7378;DHT22;3730;50.856;12.776;2022-07-29T12:02:54;28.30;1.00
7378;DHT22;3730;50.856;12.776;2022-07-29T12:05:20;28.30;1.00
7378;DHT22;3730;50.856;12.776;2022-07-29T12:07:47;28.30;1.00
7378;DHT22;3730;50.856;12.776;2022-07-29T12:10:13;28.30;1.00
7378;DHT22;3730;50.856;12.776;2022-07-29T12:12:38;28.40;1.00
7378;DHT22;3730;50.856;12.776;2022-07-29T12:15:18;28.50;1.00
7378;DHT22;3730;50.856;12.776;2022-07-29T12:17:45;28.50;1.00
7378;DHT22;3730;50.856;12.776;2022-07-29T12:40:01;28.70;1.00
7378;DHT22;3730;50.856;12.776;2022-07-29T12:42:27;29.30;1.00
7378;DHT22;3730;50.856;12.776;2022-07-29T12:44:53;29.40;1.00
7378;DHT22;3730;50.856;12.776;2022-07-29T12:47:20;29.50;1.00
7378;DHT22;3730;50.856;12.776;2022-07-29T12:49:46;29.40;1.00
7378;DHT22;3730;50.856;12.776;2022-07-29T12:52:33;29.40;1.00
7378;DHT22;3730;50.856;12.776;2022-07-29T12:54:59;27.80;1.00
7378;DHT22;3730;50.856;12.776;2022-07-29T12:57:26;29.20;1.00
7378;DHT22;3730;50.856;12.776;2022-07-29T13:00:10;29.10;1.00
7378;DHT22;3730;50.856;12.776;2022-07-29T13:02:38;28.80;1.00
7378;DHT22;3730;50.856;12.776;2022-07-29T13:05:05;28.70;1.00
7378;DHT22;3730;50.856;12.776;2022-07-29T13:07:32;28.50;1.00
7378;DHT22;3730;50.856;12.776;2022-07-29T13:10:17;28.30;1.00
7378;DHT22;3730;50.856;12.776;2022-07-29T13:15:32;28.00;1.00
7378;DHT22;3730;50.856;12.776;2022-07-29T13:17:58;27.80;1.00
7378;DHT22;3730;50.856;12.776;2022-07-29T13:20:26;27.70;1.00
7378;DHT22;3730;50.856;12.776;2022-07-29T13:22:53;27.60;1.00
7378;DHT22;3730;50.856;12.776;2022-07-29T13:25:45;27.40;1.00
7378;DHT22;3730;50.856;12.776;2022-07-29T13:28:10;27.10;1.00
7378;DHT22;3730;50.856;12.776;2022-07-29T13:30:37;26.80;1.10
7378;DHT22;3730;50.856;12.776;2022-07-29T13:33:03;26.50;6.00
7378;DHT22;3730;50.856;12.776;2022-07-29T13:35:28;26.00;8.70
7378;DHT22;3730;50.856;12.776;2022-07-29T13:37:55;25.80;13.10
7378;DHT22;3730;50.856;12.776;2022-07-29T13:40:20;25.70;17.80
7378;DHT22;3730;50.856;12.776;2022-07-29T13:42:46;25.40;22.30
7378;DHT22;3730;50.856;12.776;2022-07-29T13:45:12;25.30;24.40
7378;DHT22;3730;50.856;12.776;2022-07-29T13:47:38;25.20;29.30
7378;DHT22;3730;50.856;12.776;2022-07-29T13:50:06;25.00;28.30
7378;DHT22;3730;50.856;12.776;2022-07-29T13:52:32;24.90;34.70
7378;DHT22;3730;50.856;12.776;2022-07-29T13:57:24;24.80;37.10
7378;DHT22;3730;50.856;12.776;2022-07-29T14:07:09;24.50;35.90
7378;DHT22;3730;50.856;12.776;2022-07-29T14:09:35;24.30;32.60
7378;DHT22;3730;50.856;12.776;2022-07-29T14:14:28;24.30;31.60
7378;DHT22;3730;50.856;12.776;2022-07-29T14:16:54;24.30;30.00
7378;DHT22;3730;50.856;12.776;2022-07-29T14:19:20;24.30;28.90
7378;DHT22;3730;50.856;12.776;2022-07-29T14:21:45;24.30;31.00
7378;DHT22;3730;50.856;12.776;2022-07-29T14:24:11;24.30;29.90
7378;DHT22;3730;50.856;12.776;2022-07-29T14:26:37;24.30;33.00
7378;DHT22;3730;50.856;12.776;2022-07-29T14:29:02;24.20;32.10
7378;DHT22;3730;50.856;12.776;2022-07-29T14:31:28;24.20;31.90
7378;DHT22;3730;50.856;12.776;2022-07-29T14:33:54;24.20;30.70
7378;DHT22;3730;50.856;12.776;2022-07-29T14:36:19;24.20;29.90
7378;DHT22;3730;50.856;12.776;2022-07-29T14:38:45;24.10;29.50
7378;DHT22;3730;50.856;12.776;2022-07-29T14:43:37;24.00;30.20
7378;DHT22;3730;50.856;12.776;2022-07-29T14:48:29;23.50;34.90
7378;DHT22;3730;50.856;12.776;2022-07-29T14:50:54;23.30;41.10
7378;DHT22;3730;50.856;12.776;2022-07-29T15:20:14;23.20;46.20
7378;DHT22;3730;50.856;12.776;2022-07-29T15:27:35;21.40;99.30
7378;DHT22;3730;50.856;12.776;2022-07-29T15:32:27;21.10;99.90
7378;DHT22;3730;50.856;12.776;2022-07-29T15:37:18;20.90;99.90
7378;DHT22;3730;50.856;12.776;2022-07-29T15:39:44;20.80;99.90
7378;DHT22;3730;50.856;12.776;2022-07-29T15:42:10;20.70;99.90
7378;DHT22;3730;50.856;12.776;2022-07-29T19:58:28;20.60;99.90
7378;DHT22;3730;50.856;12.776;2022-07-29T20:00:54;19.90;99.90
7378;DHT22;3730;50.856;12.776;2022-07-29T20:03:20;19.90;99.90
7378;DHT22;3730;50.856;12.776;2022-07-29T20:05:46;19.90;99.90
7378;DHT22;3730;50.856;12.776;2022-07-29T20:08:18;19.90;99.90
7378;DHT22;3730;50.856;12.776;2022-07-29T20:10:44;19.90;99.90
7378;DHT22;3730;50.856;12.776;2022-07-29T20:13:10;19.90;99.90
7378;DHT22;3730;50.856;12.776;2022-07-29T20:15:36;19.90;99.90
7378;DHT22;3730;50.856;12.776;2022-07-29T20:18:02;20.00;99.90
7378;DHT22;3730;50.856;12.776;2022-07-29T20:20:27;20.00;99.90
7378;DHT22;3730;50.856;12.776;2022-07-29T20:22:54;20.10;99.90
7378;DHT22;3730;50.856;12.776;2022-07-29T20:25:20;20.10;99.90
7378;DHT22;3730;50.856;12.776;2022-07-29T20:27:46;20.10;99.90
7378;DHT22;3730;50.856;12.776;2022-07-29T20:30:14;20.10;99.90
7378;DHT22;3730;50.856;12.776;2022-07-29T20:32:40;19.90;99.90
7378;DHT22;3730;50.856;12.776;2022-07-29T20:35:07;19.90;99.90
7378;DHT22;3730;50.856;12.776;2022-07-29T20:37:32;19.90;99.90
7378;DHT22;3730;50.856;12.776;2022-07-29T20:39:58;19.90;99.90
7378;DHT22;3730;50.856;12.776;2022-07-29T20:42:24;19.90;99.90
7378;DHT22;3730;50.856;12.776;2022-07-29T20:44:50;19.90;99.90
7378;DHT22;3730;50.856;12.776;2022-07-29T20:47:18;19.90;99.90
7378;DHT22;3730;50.856;12.776;2022-07-29T20:49:45;19.90;99.90
7378;DHT22;3730;50.856;12.776;2022-07-29T20:52:10;19.90;99.90
7378;DHT22;3730;50.856;12.776;2022-07-29T20:54:37;19.90;99.90
7378;DHT22;3730;50.856;12.776;2022-07-29T20:57:02;19.90;99.90
7378;DHT22;3730;50.856;12.776;2022-07-29T20:59:28;19.90;99.90
7378;DHT22;3730;50.856;12.776;2022-07-29T21:01:54;19.90;99.90
7378;DHT22;3730;50.856;12.776;2022-07-29T21:04:20;19.90;99.90
7378;DHT22;3730;50.856;12.776;2022-07-29T21:06:45;19.90;99.90
7378;DHT22;3730;50.856;12.776;2022-07-29T21:09:11;20.00;99.90
7378;DHT22;3730;50.856;12.776;2022-07-29T21:11:37;20.00;99.90
7378;DHT22;3730;50.856;12.776;2022-07-29T21:14:03;20.00;99.90
7378;DHT22;3730;50.856;12.776;2022-07-29T21:16:30;20.00;99.90
7378;DHT22;3730;50.856;12.776;2022-07-29T21:18:57;20.00;99.90
7378;DHT22;3730;50.856;12.776;2022-07-29T21:21:23;20.10;99.90
7378;DHT22;3730;50.856;12.776;2022-07-29T21:23:51;20.10;99.90
7378;DHT22;3730;50.856;12.776;2022-07-29T21:26:17;20.10;99.90
7378;DHT22;3730;50.856;12.776;2022-07-29T21:28:43;20.10;99.90
7378;DHT22;3730;50.856;12.776;2022-07-29T21:31:11;20.10;99.90
7378;DHT22;3730;50.856;12.776;2022-07-29T21:33:38;20.10;99.90
7378;DHT22;3730;50.856;12.776;2022-07-29T21:36:05;20.10;99.90
7378;DHT22;3730;50.856;12.776;2022-07-29T21:38:32;20.10;99.90
7378;DHT22;3730;50.856;12.776;2022-07-29T21:40:58;20.10;99.90
7378;DHT22;3730;50.856;12.776;2022-07-29T21:43:24;20.10;99.90
7378;DHT22;3730;50.856;12.776;2022-07-29T21:45:51;20.00;99.90
7378;DHT22;3730;50.856;12.776;2022-07-29T21:48:18;20.00;99.90
7378;DHT22;3730;50.856;12.776;2022-07-29T21:50:45;20.00;99.90
7378;DHT22;3730;50.856;12.776;2022-07-29T21:53:11;20.00;99.90
7378;DHT22;3730;50.856;12.776;2022-07-29T21:55:37;20.00;99.90
7378;DHT22;3730;50.856;12.776;2022-07-29T21:58:02;19.90;99.90
7378;DHT22;3730;50.856;12.776;2022-07-29T22:00:28;19.90;99.90
7378;DHT22;3730;50.856;12.776;2022-07-29T22:02:55;19.90;99.90
7378;DHT22;3730;50.856;12.776;2022-07-29T22:05:21;19.90;99.90
7378;DHT22;3730;50.856;12.776;2022-07-29T22:07:47;19.80;99.90
7378;DHT22;3730;50.856;12.776;2022-07-29T22:10:14;19.70;99.90
7378;DHT22;3730;50.856;12.776;2022-07-29T22:12:40;19.70;99.90
7378;DHT22;3730;50.856;12.776;2022-07-29T22:15:06;19.70;99.90
7378;DHT22;3730;50.856;12.776;2022-07-29T22:17:32;19.70;99.90
7378;DHT22;3730;50.856;12.776;2022-07-29T22:19:58;19.60;99.90
7378;DHT22;3730;50.856;12.776;2022-07-29T22:22:24;19.60;99.90
7378;DHT22;3730;50.856;12.776;2022-07-29T22:24:49;19.50;99.90
7378;DHT22;3730;50.856;12.776;2022-07-29T22:27:15;19.50;99.90
7378;DHT22;3730;50.856;12.776;2022-07-29T22:29:41;19.50;99.90
7378;DHT22;3730;50.856;12.776;2022-07-29T22:32:06;19.50;99.90
7378;DHT22;3730;50.856;12.776;2022-07-29T22:34:32;19.40;99.90
7378;DHT22;3730;50.856;12.776;2022-07-29T22:36:59;19.40;99.90
7378;DHT22;3730;50.856;12.776;2022-07-29T22:39:25;19.30;99.90
7378;DHT22;3730;50.856;12.776;2022-07-29T22:41:51;19.30;99.90
7378;DHT22;3730;50.856;12.776;2022-07-29T22:44:16;19.30;99.90
7378;DHT22;3730;50.856;12.776;2022-07-29T22:46:42;19.20;99.90
7378;DHT22;3730;50.856;12.776;2022-07-29T22:49:08;19.20;99.90
7378;DHT22;3730;50.856;12.776;2022-07-29T22:51:35;19.20;99.90
7378;DHT22;3730;50.856;12.776;2022-07-29T22:54:01;19.10;99.90
7378;DHT22;3730;50.856;12.776;2022-07-29T22:56:27;19.10;99.90
7378;DHT22;3730;50.856;12.776;2022-07-29T22:58:53;19.10;99.90
7378;DHT22;3730;50.856;12.776;2022-07-29T23:01:22;18.90;99.90
7378;DHT22;3730;50.856;12.776;2022-07-29T23:03:48;18.90;99.90
7378;DHT22;3730;50.856;12.776;2022-07-29T23:06:14;18.90;99.90
7378;DHT22;3730;50.856;12.776;2022-07-29T23:08:40;18.80;99.90
7378;DHT22;3730;50.856;12.776;2022-07-29T23:11:06;18.90;99.90
7378;DHT22;3730;50.856;12.776;2022-07-29T23:13:31;18.80;99.90
7378;DHT22;3730;50.856;12.776;2022-07-29T23:15:57;18.70;99.90
7378;DHT22;3730;50.856;12.776;2022-07-29T23:18:23;18.70;99.90
7378;DHT22;3730;50.856;12.776;2022-07-29T23:20:49;18.70;99.90
7378;DHT22;3730;50.856;12.776;2022-07-29T23:23:14;18.70;99.90
7378;DHT22;3730;50.856;12.776;2022-07-29T23:25:40;18.60;99.90
7378;DHT22;3730;50.856;12.776;2022-07-29T23:28:06;18.60;99.90
